Time;durP1;ratioP1;P1;durP2;ratioP2;P2;SDS_P1;SDS_P2;PMS_P1;PMS_P2;Temp;Humidity;BMP_temperature;BMP_pressure;BME280_temperature;BME280_humidity;BME280_pressure;Samples;Min_cycle;Max_cycle;Signal;HPM_P1;HPM_P2
2023/06/09 00:00:17;;;;;;;11.82;4.90;;;15.70;99.90;;;;;;5115738;28;20032;-84
2023/06/09 00:02:50;;;;;;;19.83;5.35;;;16.50;99.90;;;;;;5114993;28;20394;-84
2023/06/09 00:05:17;;;;;;;11.02;4.85;;;16.50;99.90;;;;;;5115683;28;20031;-84
2023/06/09 00:07:45;;;;;;;12.52;5.22;;;16.40;99.90;;;;;;5115500;28;20083;-84
2023/06/09 00:10:11;;;;;;;21.55;5.55;;;16.40;99.90;;;;;;5114530;28;20027;-84
2023/06/09 00:12:37;;;;;;;13.57;5.20;;;16.30;99.90;;;;;;5115532;27;20024;-84
2023/06/09 00:15:03;;;;;;;9.73;4.82;;;16.30;99.90;;;;;;5115056;28;20472;-84
2023/06/09 00:17:29;;;;;;;11.80;5.57;;;16.30;99.90;;;;;;5114502;28;20031;-84
2023/06/09 00:20:02;;;;;;;13.00;5.00;;;16.30;99.90;;;;;;5115099;28;20020;-84
2023/06/09 00:22:28;;;;;;;9.35;4.60;;;15.50;99.90;;;;;;5115109;28;20038;-84
2023/06/09 00:24:54;;;;;;;9.57;4.30;;;16.30;99.90;;;;;;5114330;28;20468;-84
2023/06/09 00:27:19;;;;;;;6.88;4.43;;;16.70;99.90;;;;;;5115148;28;20028;-84
2023/06/09 00:29:45;;;;;;;11.15;5.70;;;15.80;99.90;;;;;;5114724;28;20027;-84
2023/06/09 00:32:11;;;;;;;14.40;5.20;;;17.20;99.90;;;;;;5114695;28;20031;-84
2023/06/09 00:34:37;;;;;;;13.02;4.60;;;16.20;99.90;;;;;;5114794;27;20023;-84
2023/06/09 00:37:03;;;;;;;13.77;4.88;;;15.50;99.90;;;;;;5114084;28;20084;-84
2023/06/09 00:39:29;;;;;;;13.32;4.43;;;16.20;99.90;;;;;;5114704;28;20046;-84
2023/06/09 00:41:55;;;;;;;14.50;4.88;;;16.90;99.90;;;;;;5114648;28;20463;-84
2023/06/09 00:44:20;;;;;;;9.93;5.10;;;15.30;99.90;;;;;;5113600;28;20054;-84
2023/06/09 00:46:46;;;;;;;16.25;4.78;;;16.70;99.90;;;;;;5114574;28;20539;-84
2023/06/09 00:49:11;;;;;;;10.90;4.47;;;16.10;99.90;;;;;;5114306;28;20611;-84
2023/06/09 00:51:39;;;;;;;16.27;6.00;;;16.10;99.90;;;;;;5113718;28;20118;-84
2023/06/09 00:54:05;;;;;;;15.20;4.80;;;16.10;99.90;;;;;;5114760;28;20024;-84
2023/06/09 00:56:32;;;;;;;10.27;4.78;;;16.00;99.90;;;;;;5114669;28;20028;-84
2023/06/09 00:58:58;;;;;;;12.85;5.28;;;15.20;99.90;;;;;;5113933;28;20024;-84
2023/06/09 01:01:24;;;;;;;16.00;4.75;;;15.90;99.90;;;;;;5114351;28;20028;-84
2023/06/09 01:03:50;;;;;;;16.25;5.28;;;16.00;99.90;;;;;;5114358;28;20020;-84
2023/06/09 01:06:23;;;;;;;12.55;5.28;;;15.50;99.90;;;;;;5113372;28;20115;-84
2023/06/09 01:09:04;;;;;;;13.68;5.20;;;15.80;99.90;;;;;;5114279;28;20467;-84
2023/06/09 01:11:36;;;;;;;9.98;5.28;;;16.30;99.90;;;;;;5114359;28;20069;-84
2023/06/09 01:14:09;;;;;;;20.05;5.50;;;15.70;99.90;;;;;;5113561;28;20099;-84
2023/06/09 01:16:47;;;;;;;13.70;4.60;;;15.70;99.90;;;;;;5114052;28;20027;-84
2023/06/09 01:19:24;;;;;;;12.63;4.60;;;15.60;99.90;;;;;;5113499;28;20031;-84
2023/06/09 01:21:53;;;;;;;13.50;4.88;;;15.60;99.90;;;;;;5113972;28;20048;-84
2023/06/09 01:24:45;;;;;;;10.52;4.88;;;15.60;99.90;;;;;;5113774;28;20067;-84
2023/06/09 01:27:12;;;;;;;13.90;5.40;;;15.60;99.90;;;;;;5112782;28;20046;-84
2023/06/09 01:29:40;;;;;;;12.68;4.90;;;15.60;99.90;;;;;;5114076;28;20020;-84
2023/06/09 01:32:07;;;;;;;12.20;5.05;;;15.00;99.90;;;;;;5113968;28;20054;-84
2023/06/09 01:34:33;;;;;;;10.35;4.45;;;15.60;99.90;;;;;;5113106;28;20019;-84
2023/06/09 01:37:00;;;;;;;12.30;5.38;;;15.60;99.90;;;;;;5113894;28;20463;-84
2023/06/09 01:39:26;;;;;;;13.50;4.82;;;15.50;99.90;;;;;;5113798;28;20039;-84
2023/06/09 01:41:52;;;;;;;11.40;4.93;;;15.50;99.90;;;;;;5112886;28;20024;-84
2023/06/09 01:44:18;;;;;;;16.85;5.55;;;14.50;99.90;;;;;;5113569;28;20057;-84
2023/06/09 01:46:44;;;;;;;15.48;5.45;;;15.40;99.90;;;;;;5113493;28;20118;-84
2023/06/09 01:49:35;;;;;;;12.27;4.68;;;15.40;99.90;;;;;;5112522;28;20513;-84
2023/06/09 01:52:15;;;;;;;13.35;4.82;;;15.40;99.90;;;;;;5113498;28;20475;-84
2023/06/09 01:54:54;;;;;;;10.73;5.28;;;15.40;99.90;;;;;;5113011;28;20101;-84
2023/06/09 01:57:48;;;;;;;17.15;5.63;;;15.30;99.90;;;;;;5113454;28;20467;-84
2023/06/09 02:00:14;;;;;;;18.15;5.90;;;15.30;99.90;;;;;;5113371;28;20020;-84
2023/06/09 02:02:41;;;;;;;12.98;4.75;;;15.30;99.90;;;;;;5113081;28;20046;-84
2023/06/09 02:05:08;;;;;;;14.65;4.93;;;15.60;99.90;;;;;;5113489;28;20028;-84
2023/06/09 02:07:34;;;;;;;16.02;5.00;;;15.40;99.90;;;;;;5113565;28;20111;-84
2023/06/09 02:10:00;;;;;;;11.10;5.13;;;15.30;99.90;;;;;;5112802;28;20104;-84
2023/06/09 02:12:33;;;;;;;16.50;5.63;;;15.10;99.90;;;;;;5113432;28;20092;-84
2023/06/09 02:14:59;;;;;;;16.95;5.13;;;15.20;99.90;;;;;;5113307;28;20112;-84
2023/06/09 02:17:26;;;;;;;14.65;5.28;;;15.20;99.90;;;;;;5112767;28;20112;-84
2023/06/09 02:19:51;;;;;;;12.18;4.97;;;15.20;99.90;;;;;;5113290;28;20386;-84
2023/06/09 02:22:17;;;;;;;16.42;5.70;;;15.20;99.90;;;;;;5112857;28;20027;-84
2023/06/09 02:24:42;;;;;;;12.20;5.30;;;14.80;99.90;;;;;;5113185;28;20031;-84
2023/06/09 02:27:08;;;;;;;14.45;5.07;;;14.40;99.90;;;;;;5113221;28;20506;-84
2023/06/09 02:29:35;;;;;;;12.95;5.18;;;15.10;99.90;;;;;;5112456;28;20459;-84
2023/06/09 02:32:01;;;;;;;12.30;4.72;;;14.70;99.90;;;;;;5113372;28;20031;-84
2023/06/09 02:34:29;;;;;;;15.68;5.30;;;14.10;99.90;;;;;;5113383;28;20023;-84
2023/06/09 02:36:57;;;;;;;15.45;4.90;;;14.90;99.90;;;;;;5112681;28;20024;-83
2023/06/09 02:39:23;;;;;;;18.75;5.43;;;14.80;99.90;;;;;;5115505;28;20028;-84
2023/06/09 02:41:48;;;;;;;13.60;4.82;;;14.10;99.90;;;;;;5117124;28;20035;-84
2023/06/09 02:44:14;;;;;;;9.60;4.70;;;14.30;99.90;;;;;;5116135;28;20047;-84
2023/06/09 02:46:41;;;;;;;13.40;5.55;;;14.20;99.90;;;;;;5117120;28;20046;-84
2023/06/09 02:49:08;;;;;;;12.73;5.45;;;14.90;99.90;;;;;;5117175;28;20043;-84
2023/06/09 02:51:33;;;;;;;12.63;4.80;;;14.80;99.90;;;;;;5116392;28;20023;-84
2023/06/09 02:53:59;;;;;;;13.90;5.57;;;14.10;99.90;;;;;;5117073;28;20024;-84
2023/06/09 02:56:26;;;;;;;17.02;5.32;;;14.90;99.90;;;;;;5117141;28;20027;-84
2023/06/09 02:58:51;;;;;;;11.90;5.82;;;16.00;99.90;;;;;;5116030;28;20034;-84
2023/06/09 03:01:17;;;;;;;18.58;5.32;;;14.90;99.90;;;;;;5117272;28;20027;-83
2023/06/09 03:03:47;;;;;;;14.68;5.72;;;14.90;99.90;;;;;;5117134;28;20099;-84
2023/06/09 03:06:14;;;;;;;14.27;5.60;;;14.90;99.90;;;;;;5116061;28;20126;-84
2023/06/09 03:08:43;;;;;;;10.98;4.72;;;15.80;99.90;;;;;;5116779;28;20024;-85
2023/06/09 03:11:09;;;;;;;15.75;5.20;;;14.80;99.90;;;;;;5116622;28;20027;-84
2023/06/09 03:13:35;;;;;;;12.02;4.97;;;14.80;99.90;;;;;;5115859;28;20031;-84
2023/06/09 03:16:02;;;;;;;11.50;5.60;;;14.80;99.90;;;;;;5116728;28;20058;-84
2023/06/09 03:18:29;;;;;;;13.48;4.93;;;15.00;99.90;;;;;;5116585;28;20027;-84
2023/06/09 03:20:55;;;;;;;10.13;4.85;;;14.80;99.90;;;;;;5115756;28;20027;-84
2023/06/09 03:23:21;;;;;;;17.30;5.35;;;14.80;99.90;;;;;;5116415;28;20026;-84
2023/06/09 03:25:51;;;;;;;14.98;5.55;;;14.00;99.90;;;;;;5115339;28;20027;-84
2023/06/09 03:28:17;;;;;;;8.37;4.83;;;14.70;99.90;;;;;;5116448;28;20031;-84
2023/06/09 03:30:43;;;;;;;17.13;6.03;;;14.10;99.90;;;;;;5116317;28;20285;-84
2023/06/09 03:33:09;;;;;;;11.18;5.65;;;15.40;99.90;;;;;;5115288;28;20567;-84
2023/06/09 03:35:34;;;;;;;10.93;4.80;;;14.60;99.90;;;;;;5116159;28;20530;-84
2023/06/09 03:38:00;;;;;;;15.82;5.68;;;14.00;99.90;;;;;;5116078;28;20036;-84
2023/06/09 03:40:25;;;;;;;14.73;5.88;;;13.90;99.90;;;;;;5115648;28;20081;-84
2023/06/09 03:42:51;;;;;;;15.02;5.72;;;13.90;99.90;;;;;;5115841;28;20471;-84
2023/06/09 03:45:16;;;;;;;15.70;4.80;;;14.70;99.90;;;;;;5115447;28;20403;-84
2023/06/09 03:47:42;;;;;;;13.98;5.03;;;14.40;99.90;;;;;;5115388;28;20020;-84
2023/06/09 03:50:08;;;;;;;13.70;4.88;;;14.70;99.90;;;;;;5114814;28;20028;-84
2023/06/09 03:52:33;;;;;;;11.18;4.80;;;14.70;99.90;;;;;;5115620;28;20020;-84
2023/06/09 03:54:59;;;;;;;14.50;6.13;;;14.60;99.90;;;;;;5114693;28;20031;-83
2023/06/09 03:57:26;;;;;;;9.52;5.22;;;14.90;99.90;;;;;;5114543;28;20034;-84
2023/06/09 03:59:51;;;;;;;10.43;4.68;;;14.50;99.90;;;;;;5115793;28;20023;-84
2023/06/09 04:02:17;;;;;;;11.40;4.68;;;14.50;99.90;;;;;;5114986;28;20079;-84
2023/06/09 04:04:43;;;;;;;11.80;4.90;;;13.70;99.90;;;;;;5115524;28;20027;-84
2023/06/09 04:07:10;;;;;;;13.65;5.32;;;15.10;99.90;;;;;;5115395;28;20039;-84
2023/06/09 04:09:35;;;;;;;13.13;4.90;;;13.70;99.90;;;;;;5114757;28;20107;-84
2023/06/09 04:12:01;;;;;;;9.38;5.10;;;14.40;99.90;;;;;;5115477;28;20061;-84
2023/06/09 04:14:28;;;;;;;11.48;5.05;;;14.50;99.90;;;;;;5115282;28;20024;-84
2023/06/09 04:16:53;;;;;;;15.77;4.97;;;14.50;99.90;;;;;;5114172;28;20075;-84
2023/06/09 04:19:19;;;;;;;10.82;5.40;;;14.10;99.90;;;;;;5115331;28;20103;-84
2023/06/09 04:21:46;;;;;;;17.42;5.22;;;14.00;99.90;;;;;;5115049;28;20379;-85
2023/06/09 04:24:14;;;;;;;14.15;5.13;;;14.50;99.90;;;;;;5114311;28;20028;-84
2023/06/09 04:26:40;;;;;;;10.43;5.45;;;14.40;99.90;;;;;;5115243;28;20069;-85
2023/06/09 04:29:09;;;;;;;16.98;6.30;;;14.60;99.90;;;;;;5114456;28;20030;-84
2023/06/09 04:31:37;;;;;;;9.50;4.72;;;13.80;99.90;;;;;;5115085;28;20034;-85
2023/06/09 04:34:09;;;;;;;9.82;5.07;;;14.70;99.90;;;;;;5114857;28;20510;-85
2023/06/09 04:36:35;;;;;;;15.20;6.18;;;13.80;99.90;;;;;;5114236;28;20054;-84
2023/06/09 04:39:03;;;;;;;14.68;5.47;;;14.60;99.90;;;;;;5115080;27;20043;-84
2023/06/09 04:41:31;;;;;;;10.52;5.63;;;14.60;99.90;;;;;;5114935;28;20035;-85
2023/06/09 04:44:03;;;;;;;13.77;5.93;;;14.70;99.90;;;;;;5114106;28;20462;-85
2023/06/09 04:46:31;;;;;;;13.43;5.63;;;14.70;99.90;;;;;;5114648;28;20115;-85
2023/06/09 04:48:58;;;;;;;14.27;5.70;;;14.10;99.90;;;;;;5114671;28;20035;-85
2023/06/09 04:51:24;;;;;;;13.00;5.47;;;14.90;99.90;;;;;;5113973;28;20027;-84
2023/06/09 04:53:50;;;;;;;10.43;5.38;;;14.20;99.90;;;;;;5114906;28;20026;-85
2023/06/09 04:56:16;;;;;;;13.63;5.45;;;14.90;99.90;;;;;;5114223;28;20379;-85
2023/06/09 04:58:42;;;;;;;11.77;5.82;;;14.40;99.90;;;;;;5113853;28;20028;-85
2023/06/09 05:01:07;;;;;;;19.98;5.07;;;16.00;99.90;;;;;;5114316;28;20038;-85
2023/06/09 05:03:33;;;;;;;11.48;5.88;;;15.10;99.90;;;;;;5113411;28;20020;-86
2023/06/09 05:05:59;;;;;;;14.75;6.10;;;14.90;99.90;;;;;;5113504;28;20040;-85
2023/06/09 05:08:25;;;;;;;15.45;5.68;;;15.40;99.90;;;;;;5114515;28;20028;-85
2023/06/09 05:10:52;;;;;;;13.27;6.30;;;14.60;99.90;;;;;;5114361;28;20012;-85
2023/06/09 05:13:18;;;;;;;15.23;5.80;;;15.50;99.90;;;;;;5113462;28;20121;-85
2023/06/09 05:15:43;;;;;;;14.68;6.70;;;15.50;99.90;;;;;;5114181;28;20063;-85
2023/06/09 05:18:09;;;;;;;9.40;5.63;;;16.20;99.90;;;;;;5113283;28;20024;-85
2023/06/09 05:20:35;;;;;;;15.60;6.00;;;15.90;99.90;;;;;;5113992;28;20024;-85
2023/06/09 05:23:02;;;;;;;11.43;6.00;;;15.50;99.90;;;;;;5114217;28;20360;-85
2023/06/09 05:25:28;;;;;;;13.55;6.43;;;15.80;99.90;;;;;;5113017;28;20064;-85
2023/06/09 05:27:53;;;;;;;13.00;6.47;;;15.60;99.90;;;;;;5114027;28;20023;-85
2023/06/09 05:30:19;;;;;;;13.85;5.68;;;14.80;99.90;;;;;;5113756;28;20352;-86
2023/06/09 05:32:45;;;;;;;15.88;5.93;;;15.60;99.90;;;;;;5112997;28;20026;-85
2023/06/09 05:35:11;;;;;;;13.98;6.10;;;14.70;99.90;;;;;;5113675;28;20020;-85
2023/06/09 05:37:56;;;;;;;10.32;6.10;;;15.70;99.90;;;;;;5113759;28;20047;-86
2023/06/09 05:40:22;;;;;;;16.77;7.35;;;16.10;99.90;;;;;;5112572;28;20037;-85
2023/06/09 05:42:49;;;;;;;10.55;6.03;;;16.00;99.90;;;;;;5113685;28;20382;-85
2023/06/09 05:45:15;;;;;;;16.38;6.75;;;15.40;99.90;;;;;;5113416;28;20043;-85
2023/06/09 05:47:41;;;;;;;17.65;6.30;;;15.90;99.90;;;;;;5112780;28;20372;-86
2023/06/09 05:50:07;;;;;;;20.70;6.07;;;15.90;99.90;;;;;;5113839;28;20043;-86
2023/06/09 05:52:32;;;;;;;13.77;6.32;;;15.90;99.90;;;;;;5113755;28;20553;-85
2023/06/09 05:55:00;;;;;;;21.00;6.68;;;16.80;99.90;;;;;;5112867;28;20020;-86
2023/06/09 05:57:29;;;;;;;12.27;6.53;;;17.20;99.90;;;;;;5113734;27;20044;-85
2023/06/09 05:59:56;;;;;;;14.33;6.23;;;15.30;99.90;;;;;;5113916;28;20039;-86
2023/06/09 06:02:22;;;;;;;13.60;6.63;;;15.70;99.90;;;;;;5112876;28;20103;-86
2023/06/09 06:04:47;;;;;;;14.70;7.18;;;16.10;99.90;;;;;;5113920;28;20101;-86
2023/06/09 06:07:15;;;;;;;18.38;7.03;;;15.30;99.90;;;;;;5113379;28;20069;-86
2023/06/09 06:09:40;;;;;;;22.42;7.88;;;16.20;99.90;;;;;;5112956;28;20016;-86
2023/06/09 06:12:06;;;;;;;11.73;6.05;;;17.00;99.90;;;;;;5113376;28;20479;-86
2023/06/09 06:14:32;;;;;;;15.63;6.70;;;16.20;99.90;;;;;;5115343;28;20375;-86
2023/06/09 06:16:57;;;;;;;19.23;8.32;;;16.30;99.90;;;;;;5117635;28;20016;-86
2023/06/09 06:19:23;;;;;;;11.27;6.93;;;15.50;99.90;;;;;;5117423;28;20049;-86
2023/06/09 06:21:49;;;;;;;18.05;7.53;;;17.40;99.90;;;;;;5116917;28;20016;-86
2023/06/09 06:24:15;;;;;;;16.02;7.65;;;15.50;99.90;;;;;;5117464;28;20031;-86
2023/06/09 06:26:41;;;;;;;15.05;7.25;;;16.40;99.90;;;;;;5117454;28;20035;-86
2023/06/09 06:29:07;;;;;;;21.40;7.65;;;17.00;99.90;;;;;;5116680;28;20387;-86
2023/06/09 06:31:32;;;;;;;17.33;7.05;;;16.00;99.90;;;;;;5117700;28;20023;-86
2023/06/09 06:33:58;;;;;;;16.25;7.70;;;16.40;99.90;;;;;;5117283;28;20348;-86
2023/06/09 06:36:26;;;;;;;13.68;7.15;;;16.00;99.90;;;;;;5117480;27;20165;-85
2023/06/09 06:38:51;;;;;;;19.20;8.10;;;17.40;99.90;;;;;;5118263;28;20020;-86
2023/06/09 06:41:17;;;;;;;12.10;7.38;;;16.00;99.90;;;;;;5117029;28;20068;-86
2023/06/09 06:43:43;;;;;;;16.83;7.50;;;15.90;99.90;;;;;;5116110;28;20035;-86
2023/06/09 06:46:11;;;;;;;12.65;7.68;;;17.20;99.90;;;;;;5117186;28;20498;-86
2023/06/09 06:48:38;;;;;;;14.60;8.02;;;17.00;99.90;;;;;;5117207;28;20031;-86
2023/06/09 06:51:07;;;;;;;34.70;10.82;;;18.00;99.90;;;;;;5116230;28;20098;-85
2023/06/09 06:53:33;;;;;;;20.67;8.25;;;16.30;99.90;;;;;;5116854;28;20104;-86
2023/06/09 06:55:59;;;;;;;14.23;8.07;;;18.10;99.90;;;;;;5116713;28;20383;-86
2023/06/09 06:58:27;;;;;;;13.77;7.78;;;16.60;99.90;;;;;;5115951;28;20023;-86
2023/06/09 07:00:55;;;;;;;15.23;8.40;;;18.10;99.90;;;;;;5116950;28;20031;-86
2023/06/09 07:03:20;;;;;;;21.50;8.95;;;17.50;99.90;;;;;;5116851;28;20035;-86
2023/06/09 07:05:46;;;;;;;15.05;8.88;;;17.50;99.90;;;;;;5115685;28;20545;-86
2023/06/09 07:08:11;;;;;;;13.60;8.43;;;17.30;99.90;;;;;;5116570;28;20051;-85
2023/06/09 07:10:37;;;;;;;14.20;7.65;;;18.20;99.90;;;;;;5116232;28;20039;-86
2023/06/09 07:13:02;;;;;;;18.58;7.95;;;17.70;99.90;;;;;;5115775;28;20023;-86
2023/06/09 07:15:28;;;;;;;17.67;8.75;;;18.20;99.90;;;;;;5116440;28;20024;-86
2023/06/09 07:17:53;;;;;;;17.27;8.23;;;17.80;99.90;;;;;;5115449;28;20030;-85
2023/06/09 07:20:19;;;;;;;16.23;8.32;;;18.20;99.90;;;;;;5116448;28;20486;-86
2023/06/09 07:22:50;;;;;;;17.15;8.38;;;17.50;99.90;;;;;;5116593;28;20149;-86
2023/06/09 07:25:16;;;;;;;21.50;9.40;;;16.70;99.90;;;;;;5114440;28;20020;-86
2023/06/09 07:27:42;;;;;;;15.23;8.88;;;17.60;99.90;;;;;;5116178;28;20024;-86
2023/06/09 07:30:08;;;;;;;12.18;8.40;;;18.00;99.90;;;;;;5116810;28;20041;-87
2023/06/09 07:32:39;;;;;;;18.42;8.55;;;17.70;99.90;;;;;;5115556;28;20490;-86
2023/06/09 07:35:05;;;;;;;18.30;9.80;;;17.20;99.90;;;;;;5116197;28;20035;-86
2023/06/09 07:37:31;;;;;;;16.52;9.88;;;17.90;99.90;;;;;;5116334;28;20041;-86
2023/06/09 07:39:57;;;;;;;19.95;9.88;;;18.60;99.90;;;;;;5115231;28;20100;-86
2023/06/09 07:42:22;;;;;;;20.60;10.00;;;17.70;99.90;;;;;;5116080;28;20402;-86
2023/06/09 07:44:48;;;;;;;18.02;9.23;;;17.70;99.90;;;;;;5115479;28;20055;-86
2023/06/09 07:47:13;;;;;;;18.42;9.88;;;17.60;99.90;;;;;;5114711;28;20119;-86
2023/06/09 07:49:39;;;;;;;21.42;10.35;;;18.10;99.90;;;;;;5115837;28;20027;-85
2023/06/09 07:52:05;;;;;;;19.55;10.70;;;17.60;99.90;;;;;;5116267;28;20051;-85
2023/06/09 07:54:31;;;;;;;15.27;10.02;;;18.10;99.90;;;;;;5114766;28;20538;-85
2023/06/09 07:56:58;;;;;;;21.17;10.20;;;18.90;99.90;;;;;;5115310;28;20026;-86
2023/06/09 07:59:23;;;;;;;20.67;10.40;;;17.40;99.90;;;;;;5115380;28;20532;-86
2023/06/09 08:01:49;;;;;;;24.90;9.95;;;18.50;99.90;;;;;;5114304;28;20032;-86
2023/06/09 08:04:14;;;;;;;21.52;11.00;;;18.30;99.90;;;;;;5115284;28;20024;-85
2023/06/09 08:06:40;;;;;;;25.83;10.68;;;18.00;99.90;;;;;;5115312;28;20036;-86
2023/06/09 08:09:06;;;;;;;21.23;10.20;;;17.40;99.90;;;;;;5114431;28;20020;-85
2023/06/09 08:11:32;;;;;;;16.70;10.32;;;18.40;99.90;;;;;;5115139;28;20055;-85
2023/06/09 08:13:58;;;;;;;18.80;10.60;;;18.50;99.90;;;;;;5114457;28;20066;-86
2023/06/09 08:16:24;;;;;;;22.05;11.77;;;17.80;99.90;;;;;;5115297;28;20026;-86
2023/06/09 08:18:49;;;;;;;19.30;10.23;;;17.80;99.90;;;;;;5115151;28;20054;-86
2023/06/09 08:21:17;;;;;;;17.95;10.20;;;18.60;99.90;;;;;;5114413;28;20477;-85
2023/06/09 08:23:43;;;;;;;16.10;11.05;;;18.50;99.90;;;;;;5114929;28;20022;-85
2023/06/09 08:26:09;;;;;;;25.77;10.52;;;18.90;99.90;;;;;;5115064;28;20106;-85
2023/06/09 08:28:36;;;;;;;19.90;11.10;;;19.10;99.90;;;;;;5114408;28;20150;-86
2023/06/09 08:31:03;;;;;;;20.35;11.40;;;19.80;99.90;;;;;;5115167;28;20028;-85
2023/06/09 08:33:28;;;;;;;21.33;10.95;;;19.00;99.90;;;;;;5115410;28;20023;-85
2023/06/09 08:35:54;;;;;;;16.15;10.15;;;19.10;99.90;;;;;;5114257;28;20099;-85
2023/06/09 08:38:19;;;;;;;17.98;11.35;;;18.60;99.90;;;;;;5114586;28;20027;-85
2023/06/09 08:40:48;;;;;;;21.55;11.27;;;19.20;99.90;;;;;;5115059;28;20144;-85
2023/06/09 08:43:14;;;;;;;20.52;10.63;;;19.90;99.90;;;;;;5114454;28;20020;-86
2023/06/09 08:45:43;;;;;;;23.75;11.48;;;20.20;99.90;;;;;;5114591;28;20044;-86
2023/06/09 08:48:09;;;;;;;18.52;11.65;;;19.30;99.90;;;;;;5114787;28;20023;-85
2023/06/09 08:50:41;;;;;;;20.13;11.50;;;20.50;99.90;;;;;;5114251;28;20034;-86
2023/06/09 08:53:08;;;;;;;18.48;11.00;;;19.90;99.90;;;;;;5114587;28;20070;-85
2023/06/09 08:55:34;;;;;;;21.58;10.77;;;19.40;99.90;;;;;;5114800;28;20020;-85
2023/06/09 08:58:00;;;;;;;16.67;11.13;;;19.10;99.90;;;;;;5113963;28;20030;-86
2023/06/09 09:00:26;;;;;;;23.05;13.38;;;19.10;99.90;;;;;;5115087;28;20032;-85
2023/06/09 09:02:51;;;;;;;18.63;11.18;;;19.90;99.90;;;;;;5114427;28;20015;-85
2023/06/09 09:05:17;;;;;;;19.23;11.27;;;18.80;99.90;;;;;;5114091;28;20016;-85
2023/06/09 09:07:45;;;;;;;18.35;11.73;;;19.70;99.90;;;;;;5114524;28;20023;-85
2023/06/09 09:10:10;;;;;;;22.98;12.85;;;19.70;99.90;;;;;;5114410;28;20521;-84
2023/06/09 09:12:46;;;;;;;21.35;11.82;;;19.90;99.90;;;;;;5113579;28;20027;-85
2023/06/09 09:15:11;;;;;;;16.02;11.65;;;20.00;99.90;;;;;;5114091;28;20024;-85
2023/06/09 09:17:40;;;;;;;18.15;11.70;;;19.40;99.90;;;;;;5113416;28;20103;-86
2023/06/09 09:20:14;;;;;;;18.90;11.45;;;20.20;99.90;;;;;;5114448;28;20027;-85
2023/06/09 09:22:50;;;;;;;21.25;11.43;;;20.10;99.90;;;;;;5114124;28;20024;-85
2023/06/09 09:25:26;;;;;;;16.23;11.88;;;20.30;99.90;;;;;;5112792;28;20475;-85
2023/06/09 09:28:06;;;;;;;24.15;12.07;;;20.30;99.90;;;;;;5113991;28;20046;-85
2023/06/09 09:30:52;;;;;;;26.73;11.93;;;20.30;99.90;;;;;;5114256;28;20101;-85
2023/06/09 09:33:27;;;;;;;20.52;11.82;;;20.30;99.90;;;;;;5113254;28;20059;-85
2023/06/09 09:35:54;;;;;;;18.92;11.70;;;20.30;99.90;;;;;;5114189;28;20027;-85
2023/06/09 09:38:24;;;;;;;17.95;12.70;;;20.40;99.90;;;;;;5113758;28;20045;-85
2023/06/09 09:40:52;;;;;;;19.02;11.73;;;20.50;99.90;;;;;;5113772;28;20049;-86
2023/06/09 09:43:19;;;;;;;16.98;11.57;;;21.00;99.90;;;;;;5114017;28;20369;-85
2023/06/09 09:45:47;;;;;;;17.00;12.05;;;20.50;99.90;;;;;;5113257;28;20055;-85
2023/06/09 09:48:15;;;;;;;16.67;11.55;;;21.40;99.90;;;;;;5112896;28;20023;-85
2023/06/09 09:50:43;;;;;;;13.65;11.50;;;20.80;99.90;;;;;;5113725;28;20028;-85
2023/06/09 09:53:09;;;;;;;15.05;11.38;;;20.70;99.90;;;;;;5112810;28;20027;-85
2023/06/09 09:55:37;;;;;;;16.73;11.50;;;20.70;99.90;;;;;;5113454;28;20475;-85
2023/06/09 09:58:06;;;;;;;15.18;11.35;;;20.70;99.90;;;;;;5113421;28;20110;-85
2023/06/09 10:00:35;;;;;;;19.60;12.98;;;20.80;99.90;;;;;;5113609;28;20028;-85
2023/06/09 10:03:13;;;;;;;19.48;10.88;;;21.00;99.90;;;;;;5114110;28;20024;-85
2023/06/09 10:05:43;;;;;;;16.50;9.98;;;21.20;99.90;;;;;;5113347;28;20391;-85
2023/06/09 10:08:12;;;;;;;15.77;12.05;;;21.40;99.90;;;;;;5114157;28;20076;-85
2023/06/09 10:10:39;;;;;;;18.80;11.80;;;21.30;99.90;;;;;;5114514;28;20028;-85
2023/06/09 10:13:05;;;;;;;17.48;11.27;;;21.30;99.90;;;;;;5113075;28;20020;-85
2023/06/09 10:15:32;;;;;;;14.38;10.85;;;21.40;99.90;;;;;;5112311;28;20095;-85
2023/06/09 10:17:58;;;;;;;15.60;11.50;;;21.70;99.90;;;;;;5113119;28;20072;-85
2023/06/09 10:20:24;;;;;;;13.90;10.00;;;21.70;99.90;;;;;;5113050;28;20076;-85
2023/06/09 10:22:52;;;;;;;17.52;10.50;;;21.50;99.90;;;;;;5112700;28;20039;-86
2023/06/09 10:25:18;;;;;;;13.38;10.25;;;21.50;99.90;;;;;;5112787;28;20026;-85
2023/06/09 10:27:45;;;;;;;10.95;9.77;;;21.70;99.90;;;;;;5112297;28;20493;-85
2023/06/09 10:30:15;;;;;;;13.88;11.65;;;21.50;99.90;;;;;;5113248;28;20117;-85
2023/06/09 10:32:47;;;;;;;17.48;10.07;;;22.10;99.90;;;;;;5112919;28;20023;-84
2023/06/09 10:35:17;;;;;;;17.05;10.30;;;21.90;99.90;;;;;;5110979;28;20024;-86
2023/06/09 10:37:45;;;;;;;14.55;10.15;;;22.00;99.90;;;;;;5121525;28;20028;-85
2023/06/09 10:40:29;;;;;;;15.95;10.27;;;22.00;99.90;;;;;;5133502;27;20110;-84
2023/06/09 10:43:38;;;;;;;15.07;9.07;;;22.00;99.90;;;;;;5129928;27;20026;-85
2023/06/09 10:46:04;;;;;;;17.77;9.50;;;22.30;99.90;;;;;;5112804;28;20436;-83
2023/06/09 10:48:46;;;;;;;9.35;8.43;;;22.30;99.90;;;;;;5112650;28;20024;-85
2023/06/09 10:51:26;;;;;;;10.45;8.48;;;22.30;99.90;;;;;;5112808;28;20028;-85
2023/06/09 10:54:12;;;;;;;12.30;8.05;;;22.20;99.90;;;;;;5112684;28;20022;-86
2023/06/09 10:57:00;;;;;;;14.65;8.25;;;22.30;99.90;;;;;;5112176;28;20032;-84
2023/06/09 10:59:25;;;;;;;14.82;7.97;;;22.30;99.90;;;;;;5112989;28;20058;-85
2023/06/09 11:02:18;;;;;;;10.73;8.15;;;22.40;99.90;;;;;;5116048;28;20475;-85
2023/06/09 11:04:52;;;;;;;18.23;7.85;;;22.30;99.90;;;;;;5107529;28;20055;-84
2023/06/09 11:07:23;;;;;;;10.23;7.25;;;22.20;99.90;;;;;;5116131;28;20050;-83
2023/06/09 11:09:49;;;;;;;8.48;7.63;;;22.50;99.90;;;;;;5113859;28;20027;-84
2023/06/09 11:12:36;;;;;;;9.52;7.55;;;22.50;99.90;;;;;;5108733;28;20039;-84
2023/06/09 11:15:03;;;;;;;10.65;7.70;;;22.70;99.90;;;;;;5112203;28;20406;-84
2023/06/09 11:17:43;;;;;;;9.95;7.03;;;22.80;99.90;;;;;;5112348;28;20044;-83
2023/06/09 11:20:20;;;;;;;11.25;6.55;;;23.90;99.90;;;;;;5112032;28;20019;-83
2023/06/09 11:22:49;;;;;;;11.68;6.68;;;22.00;99.90;;;;;;5112432;28;20119;-83
2023/06/09 11:25:15;;;;;;;11.63;6.30;;;23.10;99.90;;;;;;5115109;28;20102;-83
2023/06/09 11:27:41;;;;;;;13.68;6.68;;;23.00;99.90;;;;;;5117971;27;20119;-82
2023/06/09 11:30:20;;;;;;;7.85;6.20;;;23.20;99.90;;;;;;5136418;27;20030;-83
2023/06/09 11:32:49;;;;;;;13.55;5.72;;;23.20;99.90;;;;;;5134298;27;20302;-81
2023/06/09 11:35:27;;;;;;;11.13;6.78;;;23.40;99.90;;;;;;5136250;27;20428;-86
2023/06/09 11:37:58;;;;;;;5.57;5.07;;;23.40;99.90;;;;;;5136531;27;20092;-84
2023/06/09 11:40:24;;;;;;;7.00;5.13;;;23.40;99.90;;;;;;5136702;27;20039;-86
2023/06/09 11:42:51;;;;;;;5.93;5.40;;;22.90;99.90;;;;;;5137051;27;20031;-87
2023/06/09 11:45:17;;;;;;;6.30;5.00;;;24.00;99.90;;;;;;5113771;27;20047;-83
2023/06/09 11:47:44;;;;;;;6.47;4.50;;;24.50;99.70;;;;;;5112173;27;20075;-86
2023/06/09 11:50:12;;;;;;;7.72;4.60;;;24.10;99.00;;;;;;5107112;28;20038;-90
2023/06/09 11:52:42;;;;;;;10.23;4.50;;;24.50;99.40;;;;;;5105293;28;20072;-88
2023/06/09 11:55:09;;;;;;;4.97;4.57;;;24.00;98.80;;;;;;5098453;28;20469;-86
2023/06/09 11:57:36;;;;;;;7.28;4.40;;;24.00;98.70;;;;;;5104852;28;20069;-87
2023/06/09 12:00:12;;;;;;;6.28;4.50;;;24.20;97.70;;;;;;5117501;28;20049;-86
2023/06/09 12:02:47;;;;;;;6.78;5.07;;;24.30;98.20;;;;;;5115869;28;20455;-85
2023/06/09 12:05:13;;;;;;;4.90;4.50;;;24.30;98.30;;;;;;5115532;28;20023;-86
2023/06/09 12:07:44;;;;;;;4.47;4.18;;;24.50;98.20;;;;;;5114356;28;20043;-86
2023/06/09 12:10:10;;;;;;;4.57;4.20;;;24.10;97.60;;;;;;5115641;28;20115;-87
2023/06/09 12:12:49;;;;;;;5.38;4.72;;;25.40;97.50;;;;;;5114717;28;20031;-87
2023/06/09 12:15:16;;;;;;;6.35;5.32;;;24.80;97.10;;;;;;5115132;28;20047;-87
2023/06/09 12:17:45;;;;;;;6.50;4.03;;;24.70;97.10;;;;;;5114798;28;20015;-86
2023/06/09 12:20:26;;;;;;;13.68;4.40;;;24.70;96.10;;;;;;5114819;28;20023;-87
2023/06/09 12:22:53;;;;;;;9.38;4.50;;;25.00;95.40;;;;;;5115487;28;20023;-86
2023/06/09 12:25:25;;;;;;;5.57;5.05;;;;;;;;;;5115187;28;20111;-88
2023/06/09 12:27:56;;;;;;;8.55;4.07;;;25.40;95.70;;;;;;5114526;28;20054;-88
2023/06/09 12:30:36;;;;;;;13.25;4.50;;;25.40;95.70;;;;;;5115420;28;20024;-87
2023/06/09 12:33:21;;;;;;;10.10;4.35;;;25.20;94.90;;;;;;5115167;27;20028;-87
2023/06/09 12:35:52;;;;;;;6.35;4.47;;;25.40;94.50;;;;;;5114581;28;20058;-86
2023/06/09 12:38:26;;;;;;;6.85;4.22;;;25.60;94.00;;;;;;5115102;28;20016;-87
2023/06/09 12:40:58;;;;;;;7.60;5.07;;;25.50;95.10;;;;;;5114663;28;20386;-88